This is the latest recevied weather packets stored in our database for station/object IQ5KG. If no packets are shown the sender has not sent any weather packets the latest 10 day(s).
| Time | Temp. | Humidity | Pressure | Rain* | Wind** | Luminosity | Snow |
|---|---|---|---|---|---|---|---|
| 1777767464 | 13.33° C | 65% | 1021.3 hPa | 0 mm | - | - | - |
| 1777766563 | 13.33° C | 66% | 1021.2 hPa | 0 mm | - | - | - |
| 1777765665 | 13.33° C | 66% | 1021.4 hPa | 0 mm | - | - | - |
| 1777764763 | 13.33° C | 65% | 1021.4 hPa | 0 mm | - | - | - |
| 1777763863 | 13.89° C | 64% | 1021.5 hPa | 0 mm | - | - | - |
| 1777762963 | 13.89° C | 63% | 1021.7 hPa | 0 mm | - | - | - |
| 1777762062 | 13.89° C | 63% | 1021.7 hPa | 0 mm | - | - | - |
| 1777761162 | 13.89° C | 62% | 1021.5 hPa | 0 mm | - | - | - |
| 1777760264 | 14.44° C | 61% | 1021.5 hPa | 0 mm | - | - | - |
| 1777759364 | 13.89° C | 64% | 1021.7 hPa | 0 mm | - | - | - |
| 1777758464 | 14.44° C | 61% | 1021.4 hPa | 0 mm | - | - | - |
| 1777757563 | 15° C | 60% | 1021.4 hPa | 0 mm | - | - | - |
| 1777756664 | 15.56° C | 55% | 1021.5 hPa | 0 mm | - | - | - |
| 1777755762 | 16.67° C | 51% | 1021.5 hPa | 0 mm | - | - | - |
| 1777754863 | 16.67° C | 49% | 1021.4 hPa | 0 mm | - | - | - |
| 1777753962 | 16.67° C | 47% | 1021.5 hPa | 0 mm | - | - | - |
| 1777753063 | 16.67° C | 47% | 1021.5 hPa | 0 mm | - | - | - |
| 1777752162 | 16.67° C | 45% | 1021.6 hPa | 0 mm | - | - | - |
| 1777751262 | 17.22° C | 44% | 1021.4 hPa | 0 mm | - | - | - |
| 1777750361 | 17.22° C | 43% | 1021.4 hPa | 0 mm | - | - | - |
| 1777749463 | 17.22° C | 44% | 1021.2 hPa | 0 mm | - | - | - |
| 1777748562 | 17.22° C | 44% | 1021.2 hPa | 0 mm | - | - | - |
| 1777747661 | 17.22° C | 44% | 1021.1 hPa | 0 mm | - | - | - |
| 1777746761 | 17.22° C | 46% | 1020.8 hPa | 0 mm | - | - | - |
| 1777745861 | 17.78° C | 46% | 1020.7 hPa | 0 mm | - | - | - |
* Rain latest hour (hover to see other rain measurements)
** Current wind speed in m/s (hover to see current wind gust speed)